sensor_id;sensor_type;location;lat;lon;timestamp;P1;durP1;ratioP1;P2;durP2;ratioP2
26080;SDS011;13991;51.174;4.438;2024-02-14T00:01:42;5.93;;;2.80;;
26080;SDS011;13991;51.174;4.438;2024-02-14T00:04:08;9.23;;;3.83;;
26080;SDS011;13991;51.174;4.438;2024-02-14T00:06:35;6.17;;;3.10;;
26080;SDS011;13991;51.174;4.438;2024-02-14T00:09:01;9.43;;;3.57;;
26080;SDS011;13991;51.174;4.438;2024-02-14T00:11:28;5.87;;;3.30;;
26080;SDS011;13991;51.174;4.438;2024-02-14T00:13:53;12.67;;;3.50;;
26080;SDS011;13991;51.174;4.438;2024-02-14T00:16:21;12.03;;;3.90;;
26080;SDS011;13991;51.174;4.438;2024-02-14T00:18:46;10.30;;;3.63;;
26080;SDS011;13991;51.174;4.438;2024-02-14T00:21:12;12.37;;;3.63;;
26080;SDS011;13991;51.174;4.438;2024-02-14T00:23:38;11.27;;;3.63;;
26080;SDS011;13991;51.174;4.438;2024-02-14T00:26:06;5.20;;;3.20;;
26080;SDS011;13991;51.174;4.438;2024-02-14T00:28:32;8.03;;;3.73;;
26080;SDS011;13991;51.174;4.438;2024-02-14T00:30:58;6.50;;;3.40;;
26080;SDS011;13991;51.174;4.438;2024-02-14T00:33:27;17.03;;;4.47;;
26080;SDS011;13991;51.174;4.438;2024-02-14T00:35:53;14.87;;;3.80;;
26080;SDS011;13991;51.174;4.438;2024-02-14T00:38:19;6.97;;;3.40;;
26080;SDS011;13991;51.174;4.438;2024-02-14T00:40:44;10.47;;;3.47;;
26080;SDS011;13991;51.174;4.438;2024-02-14T00:43:10;13.00;;;3.63;;
26080;SDS011;13991;51.174;4.438;2024-02-14T00:45:36;13.33;;;3.77;;
26080;SDS011;13991;51.174;4.438;2024-02-14T00:48:03;7.60;;;3.57;;
26080;SDS011;13991;51.174;4.438;2024-02-14T00:50:29;16.50;;;3.27;;
26080;SDS011;13991;51.174;4.438;2024-02-14T00:52:54;9.67;;;3.53;;
26080;SDS011;13991;51.174;4.438;2024-02-14T00:55:20;13.77;;;2.90;;
26080;SDS011;13991;51.174;4.438;2024-02-14T00:57:46;5.33;;;3.13;;
26080;SDS011;13991;51.174;4.438;2024-02-14T01:00:11;10.53;;;4.17;;
26080;SDS011;13991;51.174;4.438;2024-02-14T01:02:38;7.20;;;3.33;;
26080;SDS011;13991;51.174;4.438;2024-02-14T01:05:04;9.03;;;3.80;;
26080;SDS011;13991;51.174;4.438;2024-02-14T01:07:30;16.00;;;3.93;;
26080;SDS011;13991;51.174;4.438;2024-02-14T01:09:56;7.47;;;4.13;;
26080;SDS011;13991;51.174;4.438;2024-02-14T01:12:22;17.70;;;3.87;;
26080;SDS011;13991;51.174;4.438;2024-02-14T01:14:47;10.43;;;3.40;;
26080;SDS011;13991;51.174;4.438;2024-02-14T01:17:14;9.83;;;3.80;;
26080;SDS011;13991;51.174;4.438;2024-02-14T01:19:39;12.13;;;4.10;;
26080;SDS011;13991;51.174;4.438;2024-02-14T01:22:05;10.87;;;3.90;;
26080;SDS011;13991;51.174;4.438;2024-02-14T01:24:33;11.50;;;3.83;;
26080;SDS011;13991;51.174;4.438;2024-02-14T01:26:59;5.60;;;3.70;;
26080;SDS011;13991;51.174;4.438;2024-02-14T01:29:25;13.27;;;4.00;;
26080;SDS011;13991;51.174;4.438;2024-02-14T01:31:51;7.97;;;4.03;;
26080;SDS011;13991;51.174;4.438;2024-02-14T01:34:17;8.90;;;4.10;;
26080;SDS011;13991;51.174;4.438;2024-02-14T01:36:43;18.47;;;5.00;;
26080;SDS011;13991;51.174;4.438;2024-02-14T01:39:09;15.60;;;4.93;;
26080;SDS011;13991;51.174;4.438;2024-02-14T01:41:44;12.07;;;4.47;;
26080;SDS011;13991;51.174;4.438;2024-02-14T01:44:14;9.03;;;4.23;;
26080;SDS011;13991;51.174;4.438;2024-02-14T01:46:42;17.47;;;4.23;;
26080;SDS011;13991;51.174;4.438;2024-02-14T01:49:11;15.60;;;4.80;;
26080;SDS011;13991;51.174;4.438;2024-02-14T01:51:37;10.63;;;4.33;;
26080;SDS011;13991;51.174;4.438;2024-02-14T01:54:04;10.57;;;4.27;;
26080;SDS011;13991;51.174;4.438;2024-02-14T01:56:31;9.50;;;4.50;;
26080;SDS011;13991;51.174;4.438;2024-02-14T01:58:58;17.37;;;4.33;;
26080;SDS011;13991;51.174;4.438;2024-02-14T02:01:25;10.87;;;4.07;;
26080;SDS011;13991;51.174;4.438;2024-02-14T02:03:51;6.53;;;3.87;;
26080;SDS011;13991;51.174;4.438;2024-02-14T02:06:17;9.87;;;4.73;;
26080;SDS011;13991;51.174;4.438;2024-02-14T02:08:43;11.17;;;4.73;;
26080;SDS011;13991;51.174;4.438;2024-02-14T02:11:09;10.27;;;4.33;;
26080;SDS011;13991;51.174;4.438;2024-02-14T02:13:35;8.20;;;4.03;;
26080;SDS011;13991;51.174;4.438;2024-02-14T02:16:04;11.43;;;3.93;;
26080;SDS011;13991;51.174;4.438;2024-02-14T02:18:31;9.53;;;4.23;;
26080;SDS011;13991;51.174;4.438;2024-02-14T02:20:57;12.03;;;4.33;;
26080;SDS011;13991;51.174;4.438;2024-02-14T02:23:23;9.37;;;4.60;;
26080;SDS011;13991;51.174;4.438;2024-02-14T02:25:50;11.13;;;4.67;;
26080;SDS011;13991;51.174;4.438;2024-02-14T02:28:16;22.83;;;5.20;;
26080;SDS011;13991;51.174;4.438;2024-02-14T02:30:42;11.70;;;4.57;;
26080;SDS011;13991;51.174;4.438;2024-02-14T02:33:08;12.67;;;5.03;;
26080;SDS011;13991;51.174;4.438;2024-02-14T02:35:33;8.40;;;4.60;;
26080;SDS011;13991;51.174;4.438;2024-02-14T02:38:00;10.50;;;5.33;;
26080;SDS011;13991;51.174;4.438;2024-02-14T02:40:26;13.23;;;4.73;;
26080;SDS011;13991;51.174;4.438;2024-02-14T02:42:54;14.90;;;5.27;;
26080;SDS011;13991;51.174;4.438;2024-02-14T02:45:20;17.03;;;5.90;;
26080;SDS011;13991;51.174;4.438;2024-02-14T02:47:46;11.43;;;4.73;;
26080;SDS011;13991;51.174;4.438;2024-02-14T02:50:13;11.27;;;4.77;;
26080;SDS011;13991;51.174;4.438;2024-02-14T02:52:39;9.33;;;4.20;;
26080;SDS011;13991;51.174;4.438;2024-02-14T02:55:06;11.60;;;4.60;;
26080;SDS011;13991;51.174;4.438;2024-02-14T02:57:32;11.03;;;4.20;;
26080;SDS011;13991;51.174;4.438;2024-02-14T02:59:59;11.23;;;5.10;;
26080;SDS011;13991;51.174;4.438;2024-02-14T03:02:25;15.47;;;4.93;;
26080;SDS011;13991;51.174;4.438;2024-02-14T03:04:51;17.50;;;4.87;;
26080;SDS011;13991;51.174;4.438;2024-02-14T03:07:18;12.67;;;4.40;;
26080;SDS011;13991;51.174;4.438;2024-02-14T03:09:44;9.50;;;5.33;;
26080;SDS011;13991;51.174;4.438;2024-02-14T03:12:10;14.63;;;4.67;;
26080;SDS011;13991;51.174;4.438;2024-02-14T03:14:35;13.60;;;5.33;;
26080;SDS011;13991;51.174;4.438;2024-02-14T03:17:04;15.93;;;5.20;;
26080;SDS011;13991;51.174;4.438;2024-02-14T03:19:33;11.00;;;4.73;;
26080;SDS011;13991;51.174;4.438;2024-02-14T03:22:03;10.93;;;5.03;;
26080;SDS011;13991;51.174;4.438;2024-02-14T03:24:30;10.60;;;5.17;;
26080;SDS011;13991;51.174;4.438;2024-02-14T03:26:56;13.60;;;5.50;;
26080;SDS011;13991;51.174;4.438;2024-02-14T03:29:22;15.20;;;5.37;;
26080;SDS011;13991;51.174;4.438;2024-02-14T03:31:48;13.93;;;6.00;;
26080;SDS011;13991;51.174;4.438;2024-02-14T03:34:13;15.83;;;5.53;;
26080;SDS011;13991;51.174;4.438;2024-02-14T03:36:40;11.40;;;5.13;;
26080;SDS011;13991;51.174;4.438;2024-02-14T03:39:05;11.57;;;5.50;;
26080;SDS011;13991;51.174;4.438;2024-02-14T03:41:32;13.10;;;6.00;;
26080;SDS011;13991;51.174;4.438;2024-02-14T03:43:58;11.27;;;5.60;;
26080;SDS011;13991;51.174;4.438;2024-02-14T03:46:28;16.17;;;5.60;;
26080;SDS011;13991;51.174;4.438;2024-02-14T03:48:55;15.07;;;5.87;;
26080;SDS011;13991;51.174;4.438;2024-02-14T03:51:23;19.67;;;5.70;;
26080;SDS011;13991;51.174;4.438;2024-02-14T03:53:49;16.63;;;5.63;;
26080;SDS011;13991;51.174;4.438;2024-02-14T03:56:14;13.07;;;5.13;;
26080;SDS011;13991;51.174;4.438;2024-02-14T03:58:41;17.97;;;6.37;;
26080;SDS011;13991;51.174;4.438;2024-02-14T04:01:12;15.10;;;6.10;;
26080;SDS011;13991;51.174;4.438;2024-02-14T04:03:38;11.93;;;5.90;;
26080;SDS011;13991;51.174;4.438;2024-02-14T04:06:03;21.67;;;6.37;;
26080;SDS011;13991;51.174;4.438;2024-02-14T04:08:29;13.53;;;5.90;;
26080;SDS011;13991;51.174;4.438;2024-02-14T04:10:55;18.73;;;5.90;;
26080;SDS011;13991;51.174;4.438;2024-02-14T04:13:21;16.17;;;5.13;;
26080;SDS011;13991;51.174;4.438;2024-02-14T04:15:47;23.67;;;6.63;;
26080;SDS011;13991;51.174;4.438;2024-02-14T04:18:13;23.33;;;7.07;;
26080;SDS011;13991;51.174;4.438;2024-02-14T04:20:43;17.97;;;7.03;;
26080;SDS011;13991;51.174;4.438;2024-02-14T04:23:09;21.77;;;6.30;;
26080;SDS011;13991;51.174;4.438;2024-02-14T04:25:35;16.90;;;7.13;;
26080;SDS011;13991;51.174;4.438;2024-02-14T04:28:04;17.63;;;6.83;;
26080;SDS011;13991;51.174;4.438;2024-02-14T04:30:30;12.33;;;6.00;;
26080;SDS011;13991;51.174;4.438;2024-02-14T04:32:56;15.67;;;6.33;;
26080;SDS011;13991;51.174;4.438;2024-02-14T04:35:22;11.07;;;6.20;;
26080;SDS011;13991;51.174;4.438;2024-02-14T04:37:48;18.10;;;6.40;;
26080;SDS011;13991;51.174;4.438;2024-02-14T04:40:14;18.10;;;6.40;;
26080;SDS011;13991;51.174;4.438;2024-02-14T04:42:43;18.00;;;6.10;;
26080;SDS011;13991;51.174;4.438;2024-02-14T04:45:09;15.43;;;6.50;;
26080;SDS011;13991;51.174;4.438;2024-02-14T04:47:35;17.23;;;6.13;;
26080;SDS011;13991;51.174;4.438;2024-02-14T04:50:01;18.20;;;7.03;;
26080;SDS011;13991;51.174;4.438;2024-02-14T04:52:29;18.93;;;6.73;;
26080;SDS011;13991;51.174;4.438;2024-02-14T04:54:55;15.27;;;6.77;;
26080;SDS011;13991;51.174;4.438;2024-02-14T04:57:21;15.47;;;6.30;;
26080;SDS011;13991;51.174;4.438;2024-02-14T04:59:47;21.80;;;7.00;;
26080;SDS011;13991;51.174;4.438;2024-02-14T05:02:13;22.83;;;7.37;;
26080;SDS011;13991;51.174;4.438;2024-02-14T05:04:39;23.20;;;6.47;;
26080;SDS011;13991;51.174;4.438;2024-02-14T05:07:05;23.30;;;5.87;;
26080;SDS011;13991;51.174;4.438;2024-02-14T05:09:30;16.77;;;5.87;;
26080;SDS011;13991;51.174;4.438;2024-02-14T05:11:56;12.53;;;6.20;;
26080;SDS011;13991;51.174;4.438;2024-02-14T05:14:22;21.23;;;6.77;;
26080;SDS011;13991;51.174;4.438;2024-02-14T05:16:48;13.03;;;6.90;;
26080;SDS011;13991;51.174;4.438;2024-02-14T05:19:14;16.70;;;6.17;;
26080;SDS011;13991;51.174;4.438;2024-02-14T05:21:40;16.80;;;6.67;;
26080;SDS011;13991;51.174;4.438;2024-02-14T05:24:06;15.27;;;6.67;;
26080;SDS011;13991;51.174;4.438;2024-02-14T05:26:32;16.83;;;7.07;;
26080;SDS011;13991;51.174;4.438;2024-02-14T05:28:58;19.20;;;6.37;;
26080;SDS011;13991;51.174;4.438;2024-02-14T05:31:24;22.70;;;6.53;;
26080;SDS011;13991;51.174;4.438;2024-02-14T05:33:50;21.07;;;5.97;;
26080;SDS011;13991;51.174;4.438;2024-02-14T05:36:15;19.23;;;5.80;;
26080;SDS011;13991;51.174;4.438;2024-02-14T05:38:42;16.83;;;6.10;;
26080;SDS011;13991;51.174;4.438;2024-02-14T05:41:08;19.43;;;6.80;;
26080;SDS011;13991;51.174;4.438;2024-02-14T05:43:35;12.90;;;5.77;;
26080;SDS011;13991;51.174;4.438;2024-02-14T05:46:01;17.60;;;5.63;;
26080;SDS011;13991;51.174;4.438;2024-02-14T05:50:58;21.53;;;6.77;;
26080;SDS011;13991;51.174;4.438;2024-02-14T05:53:23;16.60;;;6.17;;
26080;SDS011;13991;51.174;4.438;2024-02-14T05:55:49;20.73;;;6.67;;
26080;SDS011;13991;51.174;4.438;2024-02-14T05:58:15;19.73;;;7.40;;
26080;SDS011;13991;51.174;4.438;2024-02-14T06:00:41;11.80;;;5.57;;
26080;SDS011;13991;51.174;4.438;2024-02-14T06:03:06;19.87;;;7.07;;
26080;SDS011;13991;51.174;4.438;2024-02-14T06:05:32;19.77;;;6.50;;
26080;SDS011;13991;51.174;4.438;2024-02-14T06:07:58;23.60;;;6.43;;
26080;SDS011;13991;51.174;4.438;2024-02-14T06:10:24;24.83;;;7.47;;
26080;SDS011;13991;51.174;4.438;2024-02-14T06:12:50;19.30;;;6.07;;
26080;SDS011;13991;51.174;4.438;2024-02-14T06:15:16;25.93;;;7.00;;
26080;SDS011;13991;51.174;4.438;2024-02-14T06:17:42;16.73;;;6.50;;
26080;SDS011;13991;51.174;4.438;2024-02-14T06:20:07;21.53;;;6.60;;
26080;SDS011;13991;51.174;4.438;2024-02-14T06:22:34;12.17;;;6.67;;
26080;SDS011;13991;51.174;4.438;2024-02-14T06:25:00;21.43;;;7.10;;
26080;SDS011;13991;51.174;4.438;2024-02-14T06:27:25;23.70;;;7.17;;
26080;SDS011;13991;51.174;4.438;2024-02-14T06:29:52;19.40;;;7.23;;
26080;SDS011;13991;51.174;4.438;2024-02-14T06:32:18;25.83;;;7.30;;
26080;SDS011;13991;51.174;4.438;2024-02-14T06:34:44;19.67;;;7.23;;
26080;SDS011;13991;51.174;4.438;2024-02-14T06:37:09;20.20;;;7.43;;
26080;SDS011;13991;51.174;4.438;2024-02-14T06:39:35;25.07;;;6.60;;
26080;SDS011;13991;51.174;4.438;2024-02-14T06:42:01;21.17;;;6.77;;
26080;SDS011;13991;51.174;4.438;2024-02-14T06:44:27;19.47;;;7.07;;
26080;SDS011;13991;51.174;4.438;2024-02-14T06:46:52;14.57;;;6.50;;
26080;SDS011;13991;51.174;4.438;2024-02-14T06:49:19;24.37;;;5.87;;
26080;SDS011;13991;51.174;4.438;2024-02-14T06:51:45;14.53;;;5.80;;
26080;SDS011;13991;51.174;4.438;2024-02-14T06:54:11;34.67;;;6.90;;
26080;SDS011;13991;51.174;4.438;2024-02-14T06:56:40;15.53;;;6.07;;
26080;SDS011;13991;51.174;4.438;2024-02-14T06:59:06;29.77;;;5.83;;
26080;SDS011;13991;51.174;4.438;2024-02-14T07:01:32;14.90;;;6.07;;
26080;SDS011;13991;51.174;4.438;2024-02-14T07:03:58;22.87;;;7.33;;
26080;SDS011;13991;51.174;4.438;2024-02-14T07:06:24;20.90;;;6.53;;
26080;SDS011;13991;51.174;4.438;2024-02-14T07:08:51;24.13;;;6.40;;
26080;SDS011;13991;51.174;4.438;2024-02-14T07:11:25;14.90;;;6.37;;
26080;SDS011;13991;51.174;4.438;2024-02-14T07:13:51;17.77;;;6.80;;
26080;SDS011;13991;51.174;4.438;2024-02-14T07:16:24;16.10;;;6.93;;
26080;SDS011;13991;51.174;4.438;2024-02-14T07:18:49;36.57;;;7.40;;
26080;SDS011;13991;51.174;4.438;2024-02-14T07:21:15;18.50;;;7.00;;
26080;SDS011;13991;51.174;4.438;2024-02-14T07:23:41;32.87;;;8.13;;
26080;SDS011;13991;51.174;4.438;2024-02-14T07:26:07;19.37;;;6.90;;
26080;SDS011;13991;51.174;4.438;2024-02-14T07:28:33;27.73;;;7.40;;
26080;SDS011;13991;51.174;4.438;2024-02-14T07:30:58;24.47;;;6.67;;
26080;SDS011;13991;51.174;4.438;2024-02-14T07:33:24;20.60;;;6.13;;
26080;SDS011;13991;51.174;4.438;2024-02-14T07:35:50;18.17;;;7.37;;
26080;SDS011;13991;51.174;4.438;2024-02-14T07:38:16;14.07;;;6.30;;
26080;SDS011;13991;51.174;4.438;2024-02-14T07:40:42;17.20;;;6.47;;
26080;SDS011;13991;51.174;4.438;2024-02-14T07:43:08;27.13;;;6.23;;
26080;SDS011;13991;51.174;4.438;2024-02-14T07:45:34;25.97;;;6.37;;
26080;SDS011;13991;51.174;4.438;2024-02-14T07:47:59;26.37;;;6.20;;
26080;SDS011;13991;51.174;4.438;2024-02-14T07:50:25;13.23;;;5.43;;
26080;SDS011;13991;51.174;4.438;2024-02-14T07:52:53;43.67;;;7.57;;
26080;SDS011;13991;51.174;4.438;2024-02-14T07:55:22;22.47;;;5.33;;
26080;SDS011;13991;51.174;4.438;2024-02-14T07:57:49;20.40;;;6.03;;
26080;SDS011;13991;51.174;4.438;2024-02-14T08:00:14;15.70;;;6.43;;
26080;SDS011;13991;51.174;4.438;2024-02-14T08:02:47;23.40;;;5.43;;
26080;SDS011;13991;51.174;4.438;2024-02-14T08:05:13;31.70;;;7.00;;
26080;SDS011;13991;51.174;4.438;2024-02-14T08:07:39;17.63;;;5.93;;
26080;SDS011;13991;51.174;4.438;2024-02-14T08:10:05;17.13;;;5.40;;
26080;SDS011;13991;51.174;4.438;2024-02-14T08:12:30;15.47;;;5.77;;
26080;SDS011;13991;51.174;4.438;2024-02-14T08:14:56;17.80;;;6.23;;
26080;SDS011;13991;51.174;4.438;2024-02-14T08:17:25;23.37;;;8.57;;
26080;SDS011;13991;51.174;4.438;2024-02-14T08:19:51;32.77;;;6.70;;
26080;SDS011;13991;51.174;4.438;2024-02-14T08:22:17;21.57;;;6.27;;
26080;SDS011;13991;51.174;4.438;2024-02-14T08:24:43;31.90;;;7.13;;
26080;SDS011;13991;51.174;4.438;2024-02-14T08:27:09;24.70;;;7.43;;
26080;SDS011;13991;51.174;4.438;2024-02-14T08:29:35;14.70;;;6.03;;
26080;SDS011;13991;51.174;4.438;2024-02-14T08:32:00;13.90;;;5.30;;
26080;SDS011;13991;51.174;4.438;2024-02-14T08:34:26;26.03;;;6.43;;
26080;SDS011;13991;51.174;4.438;2024-02-14T08:36:52;25.53;;;5.80;;
26080;SDS011;13991;51.174;4.438;2024-02-14T08:39:18;11.30;;;5.33;;
26080;SDS011;13991;51.174;4.438;2024-02-14T08:41:44;12.53;;;5.50;;
26080;SDS011;13991;51.174;4.438;2024-02-14T08:44:12;20.27;;;6.70;;
26080;SDS011;13991;51.174;4.438;2024-02-14T08:46:38;23.17;;;5.30;;
26080;SDS011;13991;51.174;4.438;2024-02-14T08:49:07;18.47;;;5.73;;
26080;SDS011;13991;51.174;4.438;2024-02-14T08:51:37;19.07;;;5.87;;
26080;SDS011;13991;51.174;4.438;2024-02-14T08:54:06;21.47;;;6.47;;
26080;SDS011;13991;51.174;4.438;2024-02-14T08:56:32;19.60;;;5.30;;
26080;SDS011;13991;51.174;4.438;2024-02-14T08:59:01;12.60;;;5.23;;
26080;SDS011;13991;51.174;4.438;2024-02-14T09:01:30;16.13;;;5.27;;
26080;SDS011;13991;51.174;4.438;2024-02-14T09:03:56;14.43;;;5.43;;
26080;SDS011;13991;51.174;4.438;2024-02-14T09:06:23;17.67;;;5.93;;
26080;SDS011;13991;51.174;4.438;2024-02-14T09:08:51;13.83;;;4.93;;
26080;SDS011;13991;51.174;4.438;2024-02-14T09:11:18;20.73;;;6.20;;
26080;SDS011;13991;51.174;4.438;2024-02-14T09:13:44;20.67;;;7.07;;
26080;SDS011;13991;51.174;4.438;2024-02-14T09:16:12;16.13;;;6.23;;
26080;SDS011;13991;51.174;4.438;2024-02-14T09:18:40;13.93;;;5.27;;
26080;SDS011;13991;51.174;4.438;2024-02-14T09:21:07;24.17;;;5.40;;
26080;SDS011;13991;51.174;4.438;2024-02-14T09:23:33;18.57;;;5.27;;
26080;SDS011;13991;51.174;4.438;2024-02-14T09:25:59;24.73;;;5.53;;
26080;SDS011;13991;51.174;4.438;2024-02-14T09:28:26;22.13;;;5.77;;
26080;SDS011;13991;51.174;4.438;2024-02-14T09:30:52;19.40;;;5.93;;
26080;SDS011;13991;51.174;4.438;2024-02-14T09:33:17;26.40;;;6.67;;
26080;SDS011;13991;51.174;4.438;2024-02-14T09:35:45;20.77;;;6.23;;
26080;SDS011;13991;51.174;4.438;2024-02-14T09:38:12;20.97;;;5.47;;
26080;SDS011;13991;51.174;4.438;2024-02-14T09:40:41;21.20;;;5.97;;
26080;SDS011;13991;51.174;4.438;2024-02-14T09:43:22;15.73;;;5.27;;
26080;SDS011;13991;51.174;4.438;2024-02-14T09:46:02;17.70;;;5.90;;
26080;SDS011;13991;51.174;4.438;2024-02-14T09:48:29;20.67;;;5.90;;
26080;SDS011;13991;51.174;4.438;2024-02-14T09:50:56;13.10;;;5.83;;
26080;SDS011;13991;51.174;4.438;2024-02-14T09:53:22;33.80;;;6.00;;
26080;SDS011;13991;51.174;4.438;2024-02-14T09:55:52;26.03;;;5.63;;
26080;SDS011;13991;51.174;4.438;2024-02-14T09:58:35;20.87;;;5.63;;
26080;SDS011;13991;51.174;4.438;2024-02-14T10:01:01;19.60;;;6.10;;
26080;SDS011;13991;51.174;4.438;2024-02-14T10:03:27;28.03;;;6.17;;
26080;SDS011;13991;51.174;4.438;2024-02-14T10:05:53;17.13;;;5.10;;
26080;SDS011;13991;51.174;4.438;2024-02-14T10:08:19;22.13;;;5.50;;
26080;SDS011;13991;51.174;4.438;2024-02-14T10:10:57;13.83;;;5.20;;
26080;SDS011;13991;51.174;4.438;2024-02-14T10:13:29;17.57;;;4.60;;
26080;SDS011;13991;51.174;4.438;2024-02-14T10:15:59;9.63;;;4.10;;
26080;SDS011;13991;51.174;4.438;2024-02-14T10:18:32;11.20;;;3.67;;
26080;SDS011;13991;51.174;4.438;2024-02-14T10:20:57;6.37;;;3.87;;
26080;SDS011;13991;51.174;4.438;2024-02-14T10:23:23;8.63;;;4.10;;
26080;SDS011;13991;51.174;4.438;2024-02-14T10:25:59;7.43;;;3.53;;
26080;SDS011;13991;51.174;4.438;2024-02-14T10:28:28;10.87;;;3.63;;
26080;SDS011;13991;51.174;4.438;2024-02-14T10:30:55;13.20;;;3.83;;
26080;SDS011;13991;51.174;4.438;2024-02-14T10:33:27;10.10;;;3.80;;
26080;SDS011;13991;51.174;4.438;2024-02-14T10:35:54;7.10;;;3.67;;
26080;SDS011;13991;51.174;4.438;2024-02-14T10:38:22;6.93;;;3.13;;
26080;SDS011;13991;51.174;4.438;2024-02-14T10:40:52;11.17;;;3.97;;
26080;SDS011;13991;51.174;4.438;2024-02-14T10:43:19;10.43;;;3.43;;
26080;SDS011;13991;51.174;4.438;2024-02-14T10:45:45;7.93;;;3.57;;
26080;SDS011;13991;51.174;4.438;2024-02-14T10:48:11;6.60;;;2.73;;
26080;SDS011;13991;51.174;4.438;2024-02-14T10:50:47;6.27;;;3.73;;
26080;SDS011;13991;51.174;4.438;2024-02-14T10:53:15;14.57;;;3.20;;
26080;SDS011;13991;51.174;4.438;2024-02-14T10:55:49;7.50;;;2.83;;
26080;SDS011;13991;51.174;4.438;2024-02-14T10:58:19;5.57;;;2.50;;
26080;SDS011;13991;51.174;4.438;2024-02-14T11:00:50;5.50;;;2.50;;
26080;SDS011;13991;51.174;4.438;2024-02-14T11:03:22;5.73;;;2.90;;
26080;SDS011;13991;51.174;4.438;2024-02-14T11:05:49;12.57;;;3.07;;
26080;SDS011;13991;51.174;4.438;2024-02-14T11:08:24;6.00;;;2.83;;
26080;SDS011;13991;51.174;4.438;2024-02-14T11:10:56;5.10;;;2.70;;
26080;SDS011;13991;51.174;4.438;2024-02-14T11:13:30;5.70;;;2.83;;
26080;SDS011;13991;51.174;4.438;2024-02-14T11:16:14;11.30;;;3.60;;
26080;SDS011;13991;51.174;4.438;2024-02-14T11:21:45;6.70;;;2.67;;
26080;SDS011;13991;51.174;4.438;2024-02-14T11:24:16;5.03;;;2.37;;
26080;SDS011;13991;51.174;4.438;2024-02-14T11:26:52;10.47;;;2.47;;
26080;SDS011;13991;51.174;4.438;2024-02-14T11:32:24;2.60;;;2.40;;
26080;SDS011;13991;51.174;4.438;2024-02-14T11:34:58;8.60;;;2.77;;
26080;SDS011;13991;51.174;4.438;2024-02-14T11:38:07;4.83;;;2.93;;
26080;SDS011;13991;51.174;4.438;2024-02-14T11:40:38;5.97;;;2.80;;
26080;SDS011;13991;51.174;4.438;2024-02-14T11:43:06;3.97;;;2.23;;
26080;SDS011;13991;51.174;4.438;2024-02-14T11:45:39;4.80;;;2.43;;
26080;SDS011;13991;51.174;4.438;2024-02-14T11:48:11;5.23;;;2.70;;
26080;SDS011;13991;51.174;4.438;2024-02-14T11:50:40;4.83;;;2.77;;
26080;SDS011;13991;51.174;4.438;2024-02-14T11:53:08;3.90;;;2.73;;
26080;SDS011;13991;51.174;4.438;2024-02-14T11:56:06;6.07;;;2.40;;
26080;SDS011;13991;51.174;4.438;2024-02-14T12:01:47;7.83;;;3.23;;
26080;SDS011;13991;51.174;4.438;2024-02-14T12:04:16;11.40;;;3.83;;
26080;SDS011;13991;51.174;4.438;2024-02-14T12:06:43;6.33;;;3.00;;
26080;SDS011;13991;51.174;4.438;2024-02-14T12:09:15;12.00;;;3.83;;
26080;SDS011;13991;51.174;4.438;2024-02-14T12:11:44;7.60;;;3.60;;
26080;SDS011;13991;51.174;4.438;2024-02-14T12:14:14;7.77;;;3.60;;
26080;SDS011;13991;51.174;4.438;2024-02-14T12:16:43;9.17;;;3.40;;
26080;SDS011;13991;51.174;4.438;2024-02-14T12:19:18;10.90;;;4.30;;
26080;SDS011;13991;51.174;4.438;2024-02-14T12:21:45;8.70;;;4.47;;
26080;SDS011;13991;51.174;4.438;2024-02-14T12:24:13;12.63;;;5.07;;
26080;SDS011;13991;51.174;4.438;2024-02-14T12:26:40;14.30;;;4.27;;
26080;SDS011;13991;51.174;4.438;2024-02-14T12:29:12;9.60;;;4.97;;
26080;SDS011;13991;51.174;4.438;2024-02-14T12:31:38;9.40;;;4.87;;
26080;SDS011;13991;51.174;4.438;2024-02-14T12:34:04;12.80;;;4.90;;
26080;SDS011;13991;51.174;4.438;2024-02-14T12:36:30;11.93;;;4.73;;
26080;SDS011;13991;51.174;4.438;2024-02-14T12:38:58;17.90;;;4.63;;
26080;SDS011;13991;51.174;4.438;2024-02-14T12:41:27;19.00;;;5.00;;
26080;SDS011;13991;51.174;4.438;2024-02-14T12:43:55;11.03;;;4.37;;
26080;SDS011;13991;51.174;4.438;2024-02-14T12:46:25;13.93;;;4.07;;
26080;SDS011;13991;51.174;4.438;2024-02-14T12:48:51;15.67;;;4.23;;
26080;SDS011;13991;51.174;4.438;2024-02-14T12:51:17;15.10;;;5.17;;
26080;SDS011;13991;51.174;4.438;2024-02-14T12:53:43;14.77;;;4.30;;
26080;SDS011;13991;51.174;4.438;2024-02-14T12:56:09;19.77;;;5.23;;
26080;SDS011;13991;51.174;4.438;2024-02-14T12:58:34;12.53;;;3.97;;
26080;SDS011;13991;51.174;4.438;2024-02-14T13:01:04;16.93;;;4.67;;
26080;SDS011;13991;51.174;4.438;2024-02-14T13:03:38;8.93;;;4.07;;
26080;SDS011;13991;51.174;4.438;2024-02-14T13:06:04;13.80;;;4.33;;
26080;SDS011;13991;51.174;4.438;2024-02-14T13:08:30;11.20;;;3.97;;
26080;SDS011;13991;51.174;4.438;2024-02-14T13:10:56;10.07;;;3.77;;
26080;SDS011;13991;51.174;4.438;2024-02-14T13:13:22;14.33;;;4.77;;
26080;SDS011;13991;51.174;4.438;2024-02-14T13:15:47;18.53;;;4.20;;
26080;SDS011;13991;51.174;4.438;2024-02-14T13:18:13;18.07;;;4.60;;
26080;SDS011;13991;51.174;4.438;2024-02-14T13:20:42;12.43;;;4.10;;
26080;SDS011;13991;51.174;4.438;2024-02-14T13:23:09;17.63;;;4.37;;
26080;SDS011;13991;51.174;4.438;2024-02-14T13:25:35;20.90;;;4.87;;
26080;SDS011;13991;51.174;4.438;2024-02-14T13:28:04;14.77;;;4.07;;
26080;SDS011;13991;51.174;4.438;2024-02-14T13:30:31;16.10;;;3.77;;
26080;SDS011;13991;51.174;4.438;2024-02-14T13:32:56;16.50;;;4.20;;
26080;SDS011;13991;51.174;4.438;2024-02-14T13:35:22;9.13;;;3.60;;
26080;SDS011;13991;51.174;4.438;2024-02-14T13:37:48;10.70;;;3.60;;
26080;SDS011;13991;51.174;4.438;2024-02-14T13:40:14;13.90;;;3.80;;
26080;SDS011;13991;51.174;4.438;2024-02-14T13:42:46;11.77;;;3.63;;
26080;SDS011;13991;51.174;4.438;2024-02-14T13:45:12;12.50;;;3.70;;
26080;SDS011;13991;51.174;4.438;2024-02-14T13:47:41;14.30;;;3.70;;
26080;SDS011;13991;51.174;4.438;2024-02-14T13:50:08;15.50;;;2.80;;
26080;SDS011;13991;51.174;4.438;2024-02-14T13:52:35;13.93;;;3.40;;
26080;SDS011;13991;51.174;4.438;2024-02-14T13:55:01;12.47;;;3.07;;
26080;SDS011;13991;51.174;4.438;2024-02-14T13:57:30;9.47;;;3.17;;
26080;SDS011;13991;51.174;4.438;2024-02-14T13:59:59;15.00;;;3.23;;
26080;SDS011;13991;51.174;4.438;2024-02-14T14:02:27;11.67;;;3.20;;
26080;SDS011;13991;51.174;4.438;2024-02-14T14:04:56;7.00;;;3.07;;
26080;SDS011;13991;51.174;4.438;2024-02-14T14:07:21;14.43;;;2.80;;
26080;SDS011;13991;51.174;4.438;2024-02-14T14:09:48;15.17;;;3.00;;
26080;SDS011;13991;51.174;4.438;2024-02-14T14:12:14;5.90;;;2.70;;
26080;SDS011;13991;51.174;4.438;2024-02-14T14:14:40;11.30;;;2.77;;
26080;SDS011;13991;51.174;4.438;2024-02-14T14:17:09;5.37;;;2.60;;
26080;SDS011;13991;51.174;4.438;2024-02-14T14:19:35;8.03;;;2.97;;
26080;SDS011;13991;51.174;4.438;2024-02-14T14:22:04;9.87;;;2.30;;
26080;SDS011;13991;51.174;4.438;2024-02-14T14:24:30;7.00;;;1.90;;
26080;SDS011;13991;51.174;4.438;2024-02-14T14:26:56;7.33;;;2.30;;
26080;SDS011;13991;51.174;4.438;2024-02-14T14:29:22;18.83;;;3.33;;
26080;SDS011;13991;51.174;4.438;2024-02-14T14:31:53;18.07;;;3.93;;
26080;SDS011;13991;51.174;4.438;2024-02-14T14:34:28;18.33;;;3.00;;
26080;SDS011;13991;51.174;4.438;2024-02-14T14:36:57;8.63;;;2.80;;
26080;SDS011;13991;51.174;4.438;2024-02-14T14:39:23;10.77;;;2.97;;
26080;SDS011;13991;51.174;4.438;2024-02-14T14:41:56;14.23;;;2.60;;
26080;SDS011;13991;51.174;4.438;2024-02-14T14:44:29;16.57;;;2.90;;
26080;SDS011;13991;51.174;4.438;2024-02-14T14:46:55;11.20;;;3.00;;
26080;SDS011;13991;51.174;4.438;2024-02-14T14:49:24;9.60;;;3.30;;
26080;SDS011;13991;51.174;4.438;2024-02-14T14:51:49;10.53;;;3.43;;